sensor_id;sensor_type;location;lat;lon;timestamp;P1;durP1;ratioP1;P2;durP2;ratioP2
26598;SDS011;14240;51.064;16.612;2023-02-15T00:02:24;68.13;;;23.45;;
26598;SDS011;14240;51.064;16.612;2023-02-15T00:04:50;69.95;;;24.90;;
26598;SDS011;14240;51.064;16.612;2023-02-15T00:07:16;63.78;;;23.80;;
26598;SDS011;14240;51.064;16.612;2023-02-15T00:09:44;63.47;;;24.52;;
26598;SDS011;14240;51.064;16.612;2023-02-15T00:12:11;72.53;;;24.85;;
26598;SDS011;14240;51.064;16.612;2023-02-15T00:14:36;67.25;;;22.85;;
26598;SDS011;14240;51.064;16.612;2023-02-15T00:17:02;64.28;;;23.67;;
26598;SDS011;14240;51.064;16.612;2023-02-15T00:19:28;65.53;;;23.25;;
26598;SDS011;14240;51.064;16.612;2023-02-15T00:21:53;68.45;;;23.85;;
26598;SDS011;14240;51.064;16.612;2023-02-15T00:24:19;66.90;;;23.58;;
26598;SDS011;14240;51.064;16.612;2023-02-15T00:26:45;61.33;;;23.33;;
26598;SDS011;14240;51.064;16.612;2023-02-15T00:29:12;67.07;;;23.90;;
26598;SDS011;14240;51.064;16.612;2023-02-15T00:31:41;65.93;;;24.40;;
26598;SDS011;14240;51.064;16.612;2023-02-15T00:34:10;64.28;;;25.00;;
26598;SDS011;14240;51.064;16.612;2023-02-15T00:36:40;71.38;;;24.92;;
26598;SDS011;14240;51.064;16.612;2023-02-15T00:39:06;68.28;;;23.95;;
26598;SDS011;14240;51.064;16.612;2023-02-15T00:41:32;73.35;;;24.55;;
26598;SDS011;14240;51.064;16.612;2023-02-15T00:43:58;62.03;;;25.13;;
26598;SDS011;14240;51.064;16.612;2023-02-15T00:46:24;78.18;;;26.38;;
26598;SDS011;14240;51.064;16.612;2023-02-15T00:48:50;76.05;;;27.17;;
26598;SDS011;14240;51.064;16.612;2023-02-15T00:51:15;84.97;;;26.80;;
26598;SDS011;14240;51.064;16.612;2023-02-15T00:53:42;72.50;;;24.70;;
26598;SDS011;14240;51.064;16.612;2023-02-15T00:56:09;76.65;;;25.55;;
26598;SDS011;14240;51.064;16.612;2023-02-15T00:58:35;67.82;;;24.00;;
26598;SDS011;14240;51.064;16.612;2023-02-15T01:01:05;75.68;;;25.70;;
26598;SDS011;14240;51.064;16.612;2023-02-15T01:03:35;71.35;;;25.35;;
26598;SDS011;14240;51.064;16.612;2023-02-15T01:06:01;73.90;;;25.98;;
26598;SDS011;14240;51.064;16.612;2023-02-15T01:08:28;70.35;;;25.38;;
26598;SDS011;14240;51.064;16.612;2023-02-15T01:10:54;72.95;;;25.33;;
26598;SDS011;14240;51.064;16.612;2023-02-15T01:13:21;73.47;;;25.75;;
26598;SDS011;14240;51.064;16.612;2023-02-15T01:15:52;80.32;;;26.95;;
26598;SDS011;14240;51.064;16.612;2023-02-15T01:18:22;81.32;;;28.10;;
26598;SDS011;14240;51.064;16.612;2023-02-15T01:20:47;64.38;;;25.08;;
26598;SDS011;14240;51.064;16.612;2023-02-15T01:23:13;76.88;;;28.48;;
26598;SDS011;14240;51.064;16.612;2023-02-15T01:25:39;76.47;;;26.58;;
26598;SDS011;14240;51.064;16.612;2023-02-15T01:28:05;74.35;;;28.08;;
26598;SDS011;14240;51.064;16.612;2023-02-15T01:30:31;74.97;;;25.80;;
26598;SDS011;14240;51.064;16.612;2023-02-15T01:32:57;82.10;;;27.20;;
26598;SDS011;14240;51.064;16.612;2023-02-15T01:35:23;72.35;;;25.05;;
26598;SDS011;14240;51.064;16.612;2023-02-15T01:37:49;75.47;;;26.40;;
26598;SDS011;14240;51.064;16.612;2023-02-15T01:40:18;74.47;;;26.48;;
26598;SDS011;14240;51.064;16.612;2023-02-15T01:42:44;75.57;;;26.42;;
26598;SDS011;14240;51.064;16.612;2023-02-15T01:48:02;63.17;;;23.45;;
26598;SDS011;14240;51.064;16.612;2023-02-15T01:50:34;73.25;;;23.48;;
26598;SDS011;14240;51.064;16.612;2023-02-15T01:53:08;69.03;;;23.48;;
26598;SDS011;14240;51.064;16.612;2023-02-15T01:55:47;76.88;;;26.50;;
26598;SDS011;14240;51.064;16.612;2023-02-15T01:58:21;74.03;;;25.00;;
26598;SDS011;14240;51.064;16.612;2023-02-15T02:00:47;69.15;;;25.70;;
26598;SDS011;14240;51.064;16.612;2023-02-15T02:03:13;71.18;;;23.85;;
26598;SDS011;14240;51.064;16.612;2023-02-15T02:05:39;70.78;;;26.88;;
26598;SDS011;14240;51.064;16.612;2023-02-15T02:08:06;76.10;;;27.05;;
26598;SDS011;14240;51.064;16.612;2023-02-15T02:10:34;78.43;;;24.75;;
26598;SDS011;14240;51.064;16.612;2023-02-15T02:13:04;64.85;;;24.30;;
26598;SDS011;14240;51.064;16.612;2023-02-15T02:15:44;73.63;;;25.58;;
26598;SDS011;14240;51.064;16.612;2023-02-15T02:18:35;75.45;;;28.02;;
26598;SDS011;14240;51.064;16.612;2023-02-15T02:38:40;69.20;;;24.50;;
26598;SDS011;14240;51.064;16.612;2023-02-15T02:41:29;77.30;;;25.00;;
26598;SDS011;14240;51.064;16.612;2023-02-15T02:44:13;72.85;;;25.25;;
26598;SDS011;14240;51.064;16.612;2023-02-15T02:47:10;84.15;;;26.40;;
26598;SDS011;14240;51.064;16.612;2023-02-15T02:49:44;79.32;;;27.80;;
26598;SDS011;14240;51.064;16.612;2023-02-15T02:55:03;83.82;;;27.95;;
26598;SDS011;14240;51.064;16.612;2023-02-15T02:57:32;88.00;;;27.70;;
26598;SDS011;14240;51.064;16.612;2023-02-15T03:00:00;81.10;;;27.70;;
26598;SDS011;14240;51.064;16.612;2023-02-15T03:02:31;81.88;;;28.10;;
26598;SDS011;14240;51.064;16.612;2023-02-15T03:05:04;81.80;;;27.50;;
26598;SDS011;14240;51.064;16.612;2023-02-15T03:07:33;78.75;;;26.02;;
26598;SDS011;14240;51.064;16.612;2023-02-15T03:10:02;84.18;;;27.45;;
26598;SDS011;14240;51.064;16.612;2023-02-15T03:12:34;79.43;;;27.15;;
26598;SDS011;14240;51.064;16.612;2023-02-15T03:17:31;83.80;;;27.33;;
26598;SDS011;14240;51.064;16.612;2023-02-15T03:20:01;82.00;;;27.58;;
26598;SDS011;14240;51.064;16.612;2023-02-15T03:22:48;73.27;;;25.77;;
26598;SDS011;14240;51.064;16.612;2023-02-15T03:25:22;79.65;;;25.75;;
26598;SDS011;14240;51.064;16.612;2023-02-15T03:27:58;74.72;;;26.95;;
26598;SDS011;14240;51.064;16.612;2023-02-15T03:30:26;76.25;;;26.05;;
26598;SDS011;14240;51.064;16.612;2023-02-15T03:32:54;79.38;;;28.00;;
26598;SDS011;14240;51.064;16.612;2023-02-15T03:35:24;74.57;;;25.60;;
26598;SDS011;14240;51.064;16.612;2023-02-15T03:37:55;81.68;;;26.00;;
26598;SDS011;14240;51.064;16.612;2023-02-15T03:40:34;69.38;;;25.35;;
26598;SDS011;14240;51.064;16.612;2023-02-15T03:43:27;72.85;;;25.05;;
26598;SDS011;14240;51.064;16.612;2023-02-15T03:46:15;73.93;;;25.45;;
26598;SDS011;14240;51.064;16.612;2023-02-15T03:48:47;77.78;;;26.55;;
26598;SDS011;14240;51.064;16.612;2023-02-15T03:51:23;79.25;;;26.38;;
26598;SDS011;14240;51.064;16.612;2023-02-15T03:54:06;78.30;;;26.13;;
26598;SDS011;14240;51.064;16.612;2023-02-15T03:56:33;79.10;;;25.17;;
26598;SDS011;14240;51.064;16.612;2023-02-15T03:59:01;76.65;;;26.80;;
26598;SDS011;14240;51.064;16.612;2023-02-15T04:01:48;70.82;;;23.77;;
26598;SDS011;14240;51.064;16.612;2023-02-15T04:06:58;70.63;;;24.58;;
26598;SDS011;14240;51.064;16.612;2023-02-15T04:09:24;74.43;;;25.73;;
26598;SDS011;14240;51.064;16.612;2023-02-15T04:12:08;75.95;;;26.48;;
26598;SDS011;14240;51.064;16.612;2023-02-15T04:14:34;75.20;;;24.63;;
26598;SDS011;14240;51.064;16.612;2023-02-15T04:17:18;78.90;;;26.85;;
26598;SDS011;14240;51.064;16.612;2023-02-15T04:19:44;72.03;;;24.10;;
26598;SDS011;14240;51.064;16.612;2023-02-15T04:22:28;80.43;;;27.27;;
26598;SDS011;14240;51.064;16.612;2023-02-15T04:25:13;74.22;;;25.70;;
26598;SDS011;14240;51.064;16.612;2023-02-15T04:27:41;77.45;;;26.52;;
26598;SDS011;14240;51.064;16.612;2023-02-15T04:30:09;93.38;;;29.10;;
26598;SDS011;14240;51.064;16.612;2023-02-15T04:32:35;88.65;;;28.70;;
26598;SDS011;14240;51.064;16.612;2023-02-15T04:35:00;69.28;;;25.70;;
26598;SDS011;14240;51.064;16.612;2023-02-15T04:37:26;78.63;;;27.60;;
26598;SDS011;14240;51.064;16.612;2023-02-15T04:39:52;80.10;;;27.40;;
26598;SDS011;14240;51.064;16.612;2023-02-15T04:42:17;82.47;;;26.92;;
26598;SDS011;14240;51.064;16.612;2023-02-15T04:44:43;82.47;;;25.52;;
26598;SDS011;14240;51.064;16.612;2023-02-15T04:47:09;78.18;;;28.02;;
26598;SDS011;14240;51.064;16.612;2023-02-15T04:49:34;78.47;;;26.45;;
26598;SDS011;14240;51.064;16.612;2023-02-15T04:52:00;79.45;;;28.27;;
26598;SDS011;14240;51.064;16.612;2023-02-15T04:54:26;79.90;;;26.85;;
26598;SDS011;14240;51.064;16.612;2023-02-15T04:56:51;81.45;;;28.08;;
26598;SDS011;14240;51.064;16.612;2023-02-15T04:59:17;81.07;;;27.25;;
26598;SDS011;14240;51.064;16.612;2023-02-15T05:01:43;90.57;;;28.85;;
26598;SDS011;14240;51.064;16.612;2023-02-15T05:04:08;80.22;;;27.45;;
26598;SDS011;14240;51.064;16.612;2023-02-15T05:06:34;83.38;;;29.73;;
26598;SDS011;14240;51.064;16.612;2023-02-15T05:09:00;86.28;;;29.88;;
26598;SDS011;14240;51.064;16.612;2023-02-15T05:11:26;102.75;;;30.48;;
26598;SDS011;14240;51.064;16.612;2023-02-15T05:13:52;82.55;;;26.90;;
26598;SDS011;14240;51.064;16.612;2023-02-15T05:16:18;79.22;;;27.77;;
26598;SDS011;14240;51.064;16.612;2023-02-15T05:18:43;81.40;;;27.35;;
26598;SDS011;14240;51.064;16.612;2023-02-15T05:21:09;77.10;;;26.80;;
26598;SDS011;14240;51.064;16.612;2023-02-15T05:23:35;89.78;;;28.35;;
26598;SDS011;14240;51.064;16.612;2023-02-15T05:26:01;90.18;;;28.67;;
26598;SDS011;14240;51.064;16.612;2023-02-15T05:28:45;79.25;;;27.67;;
26598;SDS011;14240;51.064;16.612;2023-02-15T05:31:12;82.93;;;27.33;;
26598;SDS011;14240;51.064;16.612;2023-02-15T05:33:39;83.30;;;27.42;;
26598;SDS011;14240;51.064;16.612;2023-02-15T05:36:05;83.00;;;28.90;;
26598;SDS011;14240;51.064;16.612;2023-02-15T05:38:32;78.83;;;27.77;;
26598;SDS011;14240;51.064;16.612;2023-02-15T05:40:58;82.70;;;28.60;;
26598;SDS011;14240;51.064;16.612;2023-02-15T05:43:24;76.43;;;28.02;;
26598;SDS011;14240;51.064;16.612;2023-02-15T05:45:51;89.78;;;28.85;;
26598;SDS011;14240;51.064;16.612;2023-02-15T05:48:18;82.82;;;28.35;;
26598;SDS011;14240;51.064;16.612;2023-02-15T05:50:45;81.45;;;27.10;;
26598;SDS011;14240;51.064;16.612;2023-02-15T05:53:11;82.25;;;26.67;;
26598;SDS011;14240;51.064;16.612;2023-02-15T05:55:40;87.88;;;28.67;;
26598;SDS011;14240;51.064;16.612;2023-02-15T05:58:06;80.57;;;28.80;;
26598;SDS011;14240;51.064;16.612;2023-02-15T06:00:32;98.72;;;32.08;;
26598;SDS011;14240;51.064;16.612;2023-02-15T06:02:58;79.90;;;28.08;;
26598;SDS011;14240;51.064;16.612;2023-02-15T06:05:24;76.85;;;27.10;;
26598;SDS011;14240;51.064;16.612;2023-02-15T06:07:49;81.25;;;26.52;;
26598;SDS011;14240;51.064;16.612;2023-02-15T06:10:15;87.22;;;28.27;;
26598;SDS011;14240;51.064;16.612;2023-02-15T06:12:41;82.95;;;29.77;;
26598;SDS011;14240;51.064;16.612;2023-02-15T06:15:06;85.53;;;27.42;;
26598;SDS011;14240;51.064;16.612;2023-02-15T06:17:32;87.00;;;28.60;;
26598;SDS011;14240;51.064;16.612;2023-02-15T06:19:58;81.03;;;27.35;;
26598;SDS011;14240;51.064;16.612;2023-02-15T06:22:23;90.68;;;29.58;;
26598;SDS011;14240;51.064;16.612;2023-02-15T06:24:49;81.28;;;27.95;;
26598;SDS011;14240;51.064;16.612;2023-02-15T06:27:16;82.47;;;28.88;;
26598;SDS011;14240;51.064;16.612;2023-02-15T06:29:41;78.90;;;26.58;;
26598;SDS011;14240;51.064;16.612;2023-02-15T06:32:07;75.40;;;26.83;;
26598;SDS011;14240;51.064;16.612;2023-02-15T06:34:32;77.63;;;26.40;;
26598;SDS011;14240;51.064;16.612;2023-02-15T06:36:58;77.82;;;27.55;;
26598;SDS011;14240;51.064;16.612;2023-02-15T06:39:24;85.43;;;26.65;;
26598;SDS011;14240;51.064;16.612;2023-02-15T06:41:49;81.13;;;26.45;;
26598;SDS011;14240;51.064;16.612;2023-02-15T06:44:15;82.50;;;28.17;;
26598;SDS011;14240;51.064;16.612;2023-02-15T06:46:40;84.85;;;27.70;;
26598;SDS011;14240;51.064;16.612;2023-02-15T06:49:06;81.55;;;27.50;;
26598;SDS011;14240;51.064;16.612;2023-02-15T06:51:31;82.95;;;28.27;;
26598;SDS011;14240;51.064;16.612;2023-02-15T06:53:58;86.75;;;28.30;;
26598;SDS011;14240;51.064;16.612;2023-02-15T06:56:24;79.05;;;27.02;;
26598;SDS011;14240;51.064;16.612;2023-02-15T06:58:50;71.75;;;28.50;;
26598;SDS011;14240;51.064;16.612;2023-02-15T07:01:17;82.80;;;30.83;;
26598;SDS011;14240;51.064;16.612;2023-02-15T07:03:43;69.35;;;28.73;;
26598;SDS011;14240;51.064;16.612;2023-02-15T07:06:08;85.65;;;28.60;;
26598;SDS011;14240;51.064;16.612;2023-02-15T07:08:35;87.57;;;29.05;;
26598;SDS011;14240;51.064;16.612;2023-02-15T07:11:02;91.35;;;29.25;;
26598;SDS011;14240;51.064;16.612;2023-02-15T07:13:47;67.20;;;26.58;;
26598;SDS011;14240;51.064;16.612;2023-02-15T07:16:12;76.20;;;28.73;;
26598;SDS011;14240;51.064;16.612;2023-02-15T07:18:39;81.53;;;28.92;;
26598;SDS011;14240;51.064;16.612;2023-02-15T07:21:05;74.80;;;27.30;;
26598;SDS011;14240;51.064;16.612;2023-02-15T07:23:35;68.43;;;27.83;;
26598;SDS011;14240;51.064;16.612;2023-02-15T07:26:01;64.80;;;26.40;;
26598;SDS011;14240;51.064;16.612;2023-02-15T07:28:27;66.43;;;26.70;;
26598;SDS011;14240;51.064;16.612;2023-02-15T07:30:53;67.75;;;27.45;;
26598;SDS011;14240;51.064;16.612;2023-02-15T07:33:19;67.93;;;28.67;;
26598;SDS011;14240;51.064;16.612;2023-02-15T07:35:51;65.57;;;27.23;;
26598;SDS011;14240;51.064;16.612;2023-02-15T07:38:26;68.85;;;26.75;;
26598;SDS011;14240;51.064;16.612;2023-02-15T07:40:58;66.00;;;27.77;;
26598;SDS011;14240;51.064;16.612;2023-02-15T07:43:25;64.07;;;27.67;;
26598;SDS011;14240;51.064;16.612;2023-02-15T07:45:50;61.88;;;27.45;;
26598;SDS011;14240;51.064;16.612;2023-02-15T07:48:16;67.68;;;28.13;;
26598;SDS011;14240;51.064;16.612;2023-02-15T07:50:42;69.35;;;29.15;;
26598;SDS011;14240;51.064;16.612;2023-02-15T07:53:08;65.85;;;29.38;;
26598;SDS011;14240;51.064;16.612;2023-02-15T07:55:33;68.22;;;31.20;;
26598;SDS011;14240;51.064;16.612;2023-02-15T07:57:59;71.35;;;30.98;;
26598;SDS011;14240;51.064;16.612;2023-02-15T08:00:24;68.75;;;30.40;;
26598;SDS011;14240;51.064;16.612;2023-02-15T08:02:51;62.50;;;27.55;;
26598;SDS011;14240;51.064;16.612;2023-02-15T08:05:38;69.43;;;30.95;;
26598;SDS011;14240;51.064;16.612;2023-02-15T08:08:08;59.08;;;29.15;;
26598;SDS011;14240;51.064;16.612;2023-02-15T08:10:57;77.45;;;33.58;;
26598;SDS011;14240;51.064;16.612;2023-02-15T08:13:58;73.57;;;31.58;;
26598;SDS011;14240;51.064;16.612;2023-02-15T08:19:14;64.10;;;31.17;;
26598;SDS011;14240;51.064;16.612;2023-02-15T08:21:43;67.78;;;32.35;;
26598;SDS011;14240;51.064;16.612;2023-02-15T08:24:11;62.92;;;30.77;;
26598;SDS011;14240;51.064;16.612;2023-02-15T08:26:40;71.25;;;33.50;;
26598;SDS011;14240;51.064;16.612;2023-02-15T08:29:08;72.13;;;31.90;;
26598;SDS011;14240;51.064;16.612;2023-02-15T08:34:00;62.88;;;31.25;;
26598;SDS011;14240;51.064;16.612;2023-02-15T08:36:28;68.20;;;34.22;;
26598;SDS011;14240;51.064;16.612;2023-02-15T08:38:56;61.65;;;28.13;;
26598;SDS011;14240;51.064;16.612;2023-02-15T08:41:26;60.67;;;31.50;;
26598;SDS011;14240;51.064;16.612;2023-02-15T08:43:57;61.67;;;29.52;;
26598;SDS011;14240;51.064;16.612;2023-02-15T08:46:26;59.85;;;29.60;;
26598;SDS011;14240;51.064;16.612;2023-02-15T08:48:53;63.15;;;31.33;;
26598;SDS011;14240;51.064;16.612;2023-02-15T08:51:23;53.05;;;26.33;;
26598;SDS011;14240;51.064;16.612;2023-02-15T08:53:57;57.67;;;27.70;;
26598;SDS011;14240;51.064;16.612;2023-02-15T08:56:26;58.40;;;30.10;;
26598;SDS011;14240;51.064;16.612;2023-02-15T08:58:53;54.60;;;27.83;;
26598;SDS011;14240;51.064;16.612;2023-02-15T09:01:21;53.72;;;27.42;;
26598;SDS011;14240;51.064;16.612;2023-02-15T09:06:16;51.20;;;27.02;;
26598;SDS011;14240;51.064;16.612;2023-02-15T09:08:42;51.53;;;28.07;;
26598;SDS011;14240;51.064;16.612;2023-02-15T09:11:16;45.25;;;26.38;;
26598;SDS011;14240;51.064;16.612;2023-02-15T09:13:48;47.55;;;26.25;;
26598;SDS011;14240;51.064;16.612;2023-02-15T09:16:35;47.20;;;27.20;;
26598;SDS011;14240;51.064;16.612;2023-02-15T09:19:02;48.78;;;28.85;;
26598;SDS011;14240;51.064;16.612;2023-02-15T09:21:32;46.88;;;28.33;;
26598;SDS011;14240;51.064;16.612;2023-02-15T09:24:02;48.97;;;28.90;;
26598;SDS011;14240;51.064;16.612;2023-02-15T09:26:30;49.97;;;28.23;;
26598;SDS011;14240;51.064;16.612;2023-02-15T09:28:58;52.88;;;29.85;;
26598;SDS011;14240;51.064;16.612;2023-02-15T09:31:32;46.67;;;28.25;;
26598;SDS011;14240;51.064;16.612;2023-02-15T09:34:01;47.00;;;28.83;;
26598;SDS011;14240;51.064;16.612;2023-02-15T09:36:28;46.97;;;28.55;;
26598;SDS011;14240;51.064;16.612;2023-02-15T09:38:57;42.10;;;27.80;;
26598;SDS011;14240;51.064;16.612;2023-02-15T09:44:30;44.35;;;28.55;;
26598;SDS011;14240;51.064;16.612;2023-02-15T09:49:49;44.17;;;28.17;;
26598;SDS011;14240;51.064;16.612;2023-02-15T09:57:53;40.58;;;27.85;;
26598;SDS011;14240;51.064;16.612;2023-02-15T10:05:53;44.63;;;29.02;;
26598;SDS011;14240;51.064;16.612;2023-02-15T10:08:51;43.90;;;27.83;;
26598;SDS011;14240;51.064;16.612;2023-02-15T10:11:42;45.78;;;27.88;;
26598;SDS011;14240;51.064;16.612;2023-02-15T10:28:19;48.13;;;28.23;;
26598;SDS011;14240;51.064;16.612;2023-02-15T10:30:49;47.83;;;26.60;;
26598;SDS011;14240;51.064;16.612;2023-02-15T10:33:24;50.05;;;27.85;;
26598;SDS011;14240;51.064;16.612;2023-02-15T10:44:17;56.80;;;30.33;;
26598;SDS011;14240;51.064;16.612;2023-02-15T10:52:47;51.65;;;29.42;;
26598;SDS011;14240;51.064;16.612;2023-02-15T10:55:34;56.22;;;28.67;;
26598;SDS011;14240;51.064;16.612;2023-02-15T11:06:52;56.88;;;28.88;;
26598;SDS011;14240;51.064;16.612;2023-02-15T11:09:21;51.53;;;26.65;;
26598;SDS011;14240;51.064;16.612;2023-02-15T11:11:50;56.65;;;29.63;;
26598;SDS011;14240;51.064;16.612;2023-02-15T11:14:27;55.35;;;29.00;;
26598;SDS011;14240;51.064;16.612;2023-02-15T11:17:02;54.28;;;29.38;;
26598;SDS011;14240;51.064;16.612;2023-02-15T11:19:37;53.58;;;28.27;;
26598;SDS011;14240;51.064;16.612;2023-02-15T11:22:09;51.65;;;26.85;;
26598;SDS011;14240;51.064;16.612;2023-02-15T11:24:42;51.17;;;27.50;;
26598;SDS011;14240;51.064;16.612;2023-02-15T11:27:18;58.38;;;28.52;;
26598;SDS011;14240;51.064;16.612;2023-02-15T11:32:39;57.10;;;26.60;;
26598;SDS011;14240;51.064;16.612;2023-02-15T11:37:39;57.85;;;28.50;;
26598;SDS011;14240;51.064;16.612;2023-02-15T11:43:23;54.40;;;27.77;;
26598;SDS011;14240;51.064;16.612;2023-02-15T11:45:56;53.65;;;26.10;;
26598;SDS011;14240;51.064;16.612;2023-02-15T11:48:21;54.55;;;26.58;;
26598;SDS011;14240;51.064;16.612;2023-02-15T11:50:47;55.63;;;28.23;;
26598;SDS011;14240;51.064;16.612;2023-02-15T11:53:14;55.13;;;27.55;;
26598;SDS011;14240;51.064;16.612;2023-02-15T11:55:43;53.38;;;25.77;;
26598;SDS011;14240;51.064;16.612;2023-02-15T12:01:04;53.42;;;24.88;;
26598;SDS011;14240;51.064;16.612;2023-02-15T12:03:49;60.75;;;27.98;;
26598;SDS011;14240;51.064;16.612;2023-02-15T12:06:18;57.53;;;26.38;;
26598;SDS011;14240;51.064;16.612;2023-02-15T12:11:47;57.33;;;27.30;;
26598;SDS011;14240;51.064;16.612;2023-02-15T12:14:13;51.25;;;25.40;;
26598;SDS011;14240;51.064;16.612;2023-02-15T12:16:45;51.83;;;24.17;;
26598;SDS011;14240;51.064;16.612;2023-02-15T12:19:29;47.47;;;23.88;;
26598;SDS011;14240;51.064;16.612;2023-02-15T12:22:00;49.00;;;23.73;;
26598;SDS011;14240;51.064;16.612;2023-02-15T12:24:30;46.35;;;21.75;;
26598;SDS011;14240;51.064;16.612;2023-02-15T12:27:01;48.45;;;23.63;;
26598;SDS011;14240;51.064;16.612;2023-02-15T12:29:31;48.95;;;25.02;;
26598;SDS011;14240;51.064;16.612;2023-02-15T12:32:11;48.78;;;23.67;;
26598;SDS011;14240;51.064;16.612;2023-02-15T12:34:47;49.83;;;23.98;;
26598;SDS011;14240;51.064;16.612;2023-02-15T12:37:17;49.92;;;23.48;;
26598;SDS011;14240;51.064;16.612;2023-02-15T12:39:54;52.80;;;24.58;;
26598;SDS011;14240;51.064;16.612;2023-02-15T12:42:24;50.85;;;23.67;;
26598;SDS011;14240;51.064;16.612;2023-02-15T12:45:02;53.92;;;25.30;;
26598;SDS011;14240;51.064;16.612;2023-02-15T12:47:44;52.05;;;23.40;;
26598;SDS011;14240;51.064;16.612;2023-02-15T12:56:00;45.67;;;23.95;;
26598;SDS011;14240;51.064;16.612;2023-02-15T12:58:32;42.25;;;21.20;;
26598;SDS011;14240;51.064;16.612;2023-02-15T13:03:33;52.38;;;24.65;;
26598;SDS011;14240;51.064;16.612;2023-02-15T13:05:59;50.28;;;24.73;;
26598;SDS011;14240;51.064;16.612;2023-02-15T13:08:31;44.72;;;22.45;;
26598;SDS011;14240;51.064;16.612;2023-02-15T13:11:10;51.35;;;24.50;;
26598;SDS011;14240;51.064;16.612;2023-02-15T13:13:58;53.60;;;24.88;;
26598;SDS011;14240;51.064;16.612;2023-02-15T13:16:45;48.10;;;23.60;;
26598;SDS011;14240;51.064;16.612;2023-02-15T13:19:15;49.38;;;25.13;;
26598;SDS011;14240;51.064;16.612;2023-02-15T13:21:44;50.78;;;24.95;;
26598;SDS011;14240;51.064;16.612;2023-02-15T13:24:22;54.10;;;24.67;;
26598;SDS011;14240;51.064;16.612;2023-02-15T13:26:48;58.97;;;24.27;;
26598;SDS011;14240;51.064;16.612;2023-02-15T13:29:28;45.85;;;22.88;;
26598;SDS011;14240;51.064;16.612;2023-02-15T13:31:59;54.55;;;27.25;;
26598;SDS011;14240;51.064;16.612;2023-02-15T13:34:33;56.03;;;26.02;;
26598;SDS011;14240;51.064;16.612;2023-02-15T13:42:14;51.28;;;24.52;;
26598;SDS011;14240;51.064;16.612;2023-02-15T13:47:45;54.97;;;25.15;;
26598;SDS011;14240;51.064;16.612;2023-02-15T13:58:08;56.97;;;27.38;;
26598;SDS011;14240;51.064;16.612;2023-02-15T14:17:33;54.35;;;26.52;;
26598;SDS011;14240;51.064;16.612;2023-02-15T14:20:05;57.13;;;26.70;;
26598;SDS011;14240;51.064;16.612;2023-02-15T14:26:11;56.70;;;25.10;;
26598;SDS011;14240;51.064;16.612;2023-02-15T14:31:59;58.83;;;28.23;;
26598;SDS011;14240;51.064;16.612;2023-02-15T14:37:08;64.28;;;28.50;;
26598;SDS011;14240;51.064;16.612;2023-02-15T14:39:42;60.88;;;28.00;;
26598;SDS011;14240;51.064;16.612;2023-02-15T14:42:36;57.58;;;27.17;;
26598;SDS011;14240;51.064;16.612;2023-02-15T14:45:17;57.17;;;26.15;;
26598;SDS011;14240;51.064;16.612;2023-02-15T14:48:20;57.13;;;27.80;;
26598;SDS011;14240;51.064;16.612;2023-02-15T14:50:48;64.53;;;27.17;;
26598;SDS011;14240;51.064;16.612;2023-02-15T14:55:48;61.20;;;28.98;;
26598;SDS011;14240;51.064;16.612;2023-02-15T15:01:08;65.13;;;26.95;;
26598;SDS011;14240;51.064;16.612;2023-02-15T15:03:35;68.00;;;27.48;;
26598;SDS011;14240;51.064;16.612;2023-02-15T15:06:20;60.03;;;28.08;;
26598;SDS011;14240;51.064;16.612;2023-02-15T15:08:51;61.97;;;28.23;;
26598;SDS011;14240;51.064;16.612;2023-02-15T15:13:56;71.25;;;28.88;;
26598;SDS011;14240;51.064;16.612;2023-02-15T15:16:25;61.22;;;28.58;;
26598;SDS011;14240;51.064;16.612;2023-02-15T15:19:07;67.47;;;29.50;;
26598;SDS011;14240;51.064;16.612;2023-02-15T15:32:56;65.13;;;29.77;;
26598;SDS011;14240;51.064;16.612;2023-02-15T15:38:47;67.60;;;29.58;;
26598;SDS011;14240;51.064;16.612;2023-02-15T15:41:42;64.43;;;29.85;;
26598;SDS011;14240;51.064;16.612;2023-02-15T15:49:23;59.60;;;29.00;;
26598;SDS011;14240;51.064;16.612;2023-02-15T15:51:53;72.13;;;31.17;;
26598;SDS011;14240;51.064;16.612;2023-02-15T15:54:20;75.88;;;32.88;;
26598;SDS011;14240;51.064;16.612;2023-02-15T15:56:48;70.53;;;30.58;;
26598;SDS011;14240;51.064;16.612;2023-02-15T15:59:21;70.97;;;32.55;;
26598;SDS011;14240;51.064;16.612;2023-02-15T16:01:49;72.72;;;31.83;;
26598;SDS011;14240;51.064;16.612;2023-02-15T16:04:26;71.18;;;30.98;;
26598;SDS011;14240;51.064;16.612;2023-02-15T16:06:54;71.32;;;31.50;;
26598;SDS011;14240;51.064;16.612;2023-02-15T16:09:41;72.05;;;31.17;;
26598;SDS011;14240;51.064;16.612;2023-02-15T16:12:17;71.10;;;32.33;;
26598;SDS011;14240;51.064;16.612;2023-02-15T16:14:44;75.60;;;31.20;;
26598;SDS011;14240;51.064;16.612;2023-02-15T16:17:25;74.07;;;32.33;;
26598;SDS011;14240;51.064;16.612;2023-02-15T16:20:00;69.22;;;29.67;;
26598;SDS011;14240;51.064;16.612;2023-02-15T16:22:29;64.20;;;29.90;;
26598;SDS011;14240;51.064;16.612;2023-02-15T16:27:42;76.03;;;31.45;;
26598;SDS011;14240;51.064;16.612;2023-02-15T16:33:33;88.97;;;37.45;;
26598;SDS011;14240;51.064;16.612;2023-02-15T16:35:59;88.30;;;36.55;;
26598;SDS011;14240;51.064;16.612;2023-02-15T16:41:20;81.03;;;36.40;;
26598;SDS011;14240;51.064;16.612;2023-02-15T16:43:48;81.80;;;33.70;;
26598;SDS011;14240;51.064;16.612;2023-02-15T16:46:38;77.95;;;34.67;;
26598;SDS011;14240;51.064;16.612;2023-02-15T16:49:06;88.70;;;35.80;;
26598;SDS011;14240;51.064;16.612;2023-02-15T16:51:39;80.40;;;33.22;;
26598;SDS011;14240;51.064;16.612;2023-02-15T16:54:13;84.32;;;35.20;;
26598;SDS011;14240;51.064;16.612;2023-02-15T16:56:44;78.13;;;33.42;;
26598;SDS011;14240;51.064;16.612;2023-02-15T17:01:58;81.95;;;34.13;;
26598;SDS011;14240;51.064;16.612;2023-02-15T17:04:29;78.35;;;31.23;;
26598;SDS011;14240;51.064;16.612;2023-02-15T17:07:18;79.47;;;31.88;;
26598;SDS011;14240;51.064;16.612;2023-02-15T17:09:53;92.43;;;37.10;;
26598;SDS011;14240;51.064;16.612;2023-02-15T17:15:29;144.07;;;58.72;;
26598;SDS011;14240;51.064;16.612;2023-02-15T17:18:00;167.43;;;75.10;;
26598;SDS011;14240;51.064;16.612;2023-02-15T17:20:37;164.85;;;71.80;;
26598;SDS011;14240;51.064;16.612;2023-02-15T17:23:06;174.52;;;76.97;;
26598;SDS011;14240;51.064;16.612;2023-02-15T17:25:46;196.43;;;78.57;;
26598;SDS011;14240;51.064;16.612;2023-02-15T17:28:16;205.68;;;85.43;;
26598;SDS011;14240;51.064;16.612;2023-02-15T17:30:44;364.33;;;127.32;;
26598;SDS011;14240;51.064;16.612;2023-02-15T17:36:08;263.27;;;93.20;;
26598;SDS011;14240;51.064;16.612;2023-02-15T17:38:39;227.85;;;80.93;;
26598;SDS011;14240;51.064;16.612;2023-02-15T17:41:24;192.52;;;69.15;;
26598;SDS011;14240;51.064;16.612;2023-02-15T17:43:50;187.93;;;65.72;;
26598;SDS011;14240;51.064;16.612;2023-02-15T17:46:16;191.25;;;70.82;;
26598;SDS011;14240;51.064;16.612;2023-02-15T17:48:45;157.45;;;59.40;;
26598;SDS011;14240;51.064;16.612;2023-02-15T17:51:13;156.00;;;58.25;;